sensor_id;sensor_type;location;lat;lon;timestamp;P1;durP1;ratioP1;P2;durP2;ratioP2
30080;SDS011;16902;50.816;12.828;2023-03-14T00:03:02;3.65;;;2.00;;
30080;SDS011;16902;50.816;12.828;2023-03-14T00:08:04;1.88;;;1.67;;
30080;SDS011;16902;50.816;12.828;2023-03-14T00:13:06;2.10;;;1.95;;
30080;SDS011;16902;50.816;12.828;2023-03-14T00:18:07;1.67;;;1.58;;
30080;SDS011;16902;50.816;12.828;2023-03-14T00:23:09;1.60;;;1.50;;
30080;SDS011;16902;50.816;12.828;2023-03-14T00:28:11;1.55;;;1.23;;
30080;SDS011;16902;50.816;12.828;2023-03-14T00:33:13;1.38;;;1.27;;
30080;SDS011;16902;50.816;12.828;2023-03-14T00:38:15;1.27;;;1.20;;
30080;SDS011;16902;50.816;12.828;2023-03-14T00:43:17;1.27;;;1.20;;
30080;SDS011;16902;50.816;12.828;2023-03-14T00:48:22;1.70;;;1.45;;
30080;SDS011;16902;50.816;12.828;2023-03-14T00:53:24;1.38;;;1.27;;
30080;SDS011;16902;50.816;12.828;2023-03-14T00:58:26;0.80;;;0.80;;
30080;SDS011;16902;50.816;12.828;2023-03-14T01:03:28;0.80;;;0.80;;
30080;SDS011;16902;50.816;12.828;2023-03-14T01:08:30;1.05;;;0.80;;
30080;SDS011;16902;50.816;12.828;2023-03-14T01:13:32;2.05;;;0.88;;
30080;SDS011;16902;50.816;12.828;2023-03-14T01:18:36;1.00;;;0.90;;
30080;SDS011;16902;50.816;12.828;2023-03-14T01:23:39;1.67;;;1.00;;
30080;SDS011;16902;50.816;12.828;2023-03-14T01:28:41;0.80;;;0.80;;
30080;SDS011;16902;50.816;12.828;2023-03-14T01:33:45;0.90;;;0.90;;
30080;SDS011;16902;50.816;12.828;2023-03-14T01:38:47;0.90;;;0.90;;
30080;SDS011;16902;50.816;12.828;2023-03-14T01:43:51;0.98;;;0.90;;
30080;SDS011;16902;50.816;12.828;2023-03-14T01:49:03;1.23;;;0.88;;
30080;SDS011;16902;50.816;12.828;2023-03-14T01:54:14;0.90;;;0.90;;
30080;SDS011;16902;50.816;12.828;2023-03-14T01:59:23;0.90;;;0.90;;
30080;SDS011;16902;50.816;12.828;2023-03-14T02:04:28;1.25;;;1.15;;
30080;SDS011;16902;50.816;12.828;2023-03-14T02:09:34;1.10;;;1.10;;
30080;SDS011;16902;50.816;12.828;2023-03-14T02:14:38;1.35;;;1.23;;
30080;SDS011;16902;50.816;12.828;2023-03-14T02:30:49;1.30;;;1.30;;
30080;SDS011;16902;50.816;12.828;2023-03-14T02:35:58;1.50;;;1.50;;
30080;SDS011;16902;50.816;12.828;2023-03-14T02:41:03;1.33;;;1.33;;
30080;SDS011;16902;50.816;12.828;2023-03-14T02:46:13;1.63;;;1.55;;
30080;SDS011;16902;50.816;12.828;2023-03-14T02:51:20;1.80;;;1.70;;
30080;SDS011;16902;50.816;12.828;2023-03-14T02:56:23;5.10;;;1.50;;
30080;SDS011;16902;50.816;12.828;2023-03-14T03:01:25;1.55;;;1.55;;
30080;SDS011;16902;50.816;12.828;2023-03-14T03:06:27;2.47;;;1.80;;
30080;SDS011;16902;50.816;12.828;2023-03-14T03:11:29;1.70;;;1.60;;
30080;SDS011;16902;50.816;12.828;2023-03-14T03:16:33;1.40;;;1.30;;
30080;SDS011;16902;50.816;12.828;2023-03-14T03:21:35;1.58;;;1.58;;
30080;SDS011;16902;50.816;12.828;2023-03-14T03:26:38;1.40;;;1.40;;
30080;SDS011;16902;50.816;12.828;2023-03-14T03:31:43;1.60;;;1.60;;
30080;SDS011;16902;50.816;12.828;2023-03-14T03:36:47;1.60;;;1.50;;
30080;SDS011;16902;50.816;12.828;2023-03-14T03:41:49;1.73;;;1.50;;
30080;SDS011;16902;50.816;12.828;2023-03-14T03:46:52;1.40;;;1.40;;
30080;SDS011;16902;50.816;12.828;2023-03-14T03:51:54;1.58;;;1.48;;
30080;SDS011;16902;50.816;12.828;2023-03-14T03:56:56;1.40;;;1.40;;
30080;SDS011;16902;50.816;12.828;2023-03-14T04:01:58;1.83;;;1.73;;
30080;SDS011;16902;50.816;12.828;2023-03-14T04:07:00;1.80;;;1.55;;
30080;SDS011;16902;50.816;12.828;2023-03-14T04:12:02;1.30;;;1.30;;
30080;SDS011;16902;50.816;12.828;2023-03-14T04:17:28;2.10;;;1.40;;
30080;SDS011;16902;50.816;12.828;2023-03-14T04:22:30;2.78;;;1.75;;
30080;SDS011;16902;50.816;12.828;2023-03-14T04:27:34;1.70;;;1.60;;
30080;SDS011;16902;50.816;12.828;2023-03-14T04:32:39;2.15;;;2.00;;
30080;SDS011;16902;50.816;12.828;2023-03-14T04:37:41;2.05;;;1.85;;
30080;SDS011;16902;50.816;12.828;2023-03-14T04:42:48;1.73;;;1.60;;
30080;SDS011;16902;50.816;12.828;2023-03-14T04:47:50;1.55;;;1.48;;
30080;SDS011;16902;50.816;12.828;2023-03-14T04:52:53;2.13;;;1.92;;
30080;SDS011;16902;50.816;12.828;2023-03-14T04:57:55;2.35;;;2.15;;
30080;SDS011;16902;50.816;12.828;2023-03-14T05:02:58;3.22;;;2.00;;
30080;SDS011;16902;50.816;12.828;2023-03-14T05:08:19;2.08;;;1.98;;
30080;SDS011;16902;50.816;12.828;2023-03-14T05:13:35;2.28;;;2.10;;
30080;SDS011;16902;50.816;12.828;2023-03-14T05:19:00;3.17;;;2.35;;
30080;SDS011;16902;50.816;12.828;2023-03-14T05:24:21;3.50;;;2.50;;
30080;SDS011;16902;50.816;12.828;2023-03-14T05:29:26;3.42;;;2.28;;
30080;SDS011;16902;50.816;12.828;2023-03-14T05:35:06;2.08;;;1.98;;
30080;SDS011;16902;50.816;12.828;2023-03-14T05:40:32;1.92;;;1.73;;
30080;SDS011;16902;50.816;12.828;2023-03-14T05:45:54;2.20;;;2.10;;
30080;SDS011;16902;50.816;12.828;2023-03-14T05:51:21;2.30;;;2.20;;
30080;SDS011;16902;50.816;12.828;2023-03-14T05:56:40;2.72;;;2.63;;
30080;SDS011;16902;50.816;12.828;2023-03-14T06:01:44;2.85;;;2.65;;
30080;SDS011;16902;50.816;12.828;2023-03-14T06:06:53;2.90;;;2.80;;
30080;SDS011;16902;50.816;12.828;2023-03-14T06:11:56;2.30;;;2.20;;
30080;SDS011;16902;50.816;12.828;2023-03-14T06:16:58;2.78;;;2.58;;
30080;SDS011;16902;50.816;12.828;2023-03-14T06:22:03;3.28;;;2.33;;
30080;SDS011;16902;50.816;12.828;2023-03-14T06:27:08;2.80;;;2.58;;
30080;SDS011;16902;50.816;12.828;2023-03-14T06:32:09;2.95;;;2.75;;
30080;SDS011;16902;50.816;12.828;2023-03-14T06:37:12;2.38;;;2.13;;
30080;SDS011;16902;50.816;12.828;2023-03-14T06:42:14;2.92;;;2.70;;
30080;SDS011;16902;50.816;12.828;2023-03-14T06:47:17;3.08;;;2.30;;
30080;SDS011;16902;50.816;12.828;2023-03-14T06:52:20;2.70;;;2.50;;
30080;SDS011;16902;50.816;12.828;2023-03-14T06:57:22;2.78;;;2.65;;
30080;SDS011;16902;50.816;12.828;2023-03-14T07:02:23;2.90;;;2.70;;
30080;SDS011;16902;50.816;12.828;2023-03-14T07:07:47;3.17;;;2.97;;
30080;SDS011;16902;50.816;12.828;2023-03-14T07:12:50;3.08;;;2.97;;
30080;SDS011;16902;50.816;12.828;2023-03-14T07:17:55;3.35;;;3.15;;
30080;SDS011;16902;50.816;12.828;2023-03-14T07:22:58;2.97;;;2.72;;
30080;SDS011;16902;50.816;12.828;2023-03-14T07:28:14;3.17;;;2.90;;
30080;SDS011;16902;50.816;12.828;2023-03-14T07:33:19;3.20;;;3.05;;
30080;SDS011;16902;50.816;12.828;2023-03-14T07:38:21;2.95;;;2.85;;
30080;SDS011;16902;50.816;12.828;2023-03-14T07:44:02;3.20;;;3.05;;
30080;SDS011;16902;50.816;12.828;2023-03-14T07:49:03;3.42;;;3.13;;
30080;SDS011;16902;50.816;12.828;2023-03-14T07:54:05;3.20;;;3.00;;
30080;SDS011;16902;50.816;12.828;2023-03-14T07:59:07;3.55;;;3.30;;
30080;SDS011;16902;50.816;12.828;2023-03-14T08:04:09;3.50;;;3.40;;
30080;SDS011;16902;50.816;12.828;2023-03-14T08:09:11;3.03;;;2.92;;
30080;SDS011;16902;50.816;12.828;2023-03-14T08:14:12;3.30;;;3.20;;
30080;SDS011;16902;50.816;12.828;2023-03-14T08:19:14;3.55;;;3.35;;
30080;SDS011;16902;50.816;12.828;2023-03-14T08:24:16;3.45;;;3.30;;
30080;SDS011;16902;50.816;12.828;2023-03-14T08:29:17;4.10;;;3.90;;
30080;SDS011;16902;50.816;12.828;2023-03-14T08:34:19;4.32;;;4.13;;
30080;SDS011;16902;50.816;12.828;2023-03-14T08:39:21;4.80;;;4.60;;
30080;SDS011;16902;50.816;12.828;2023-03-14T08:44:23;4.85;;;4.65;;
30080;SDS011;16902;50.816;12.828;2023-03-14T08:49:24;5.13;;;4.82;;
30080;SDS011;16902;50.816;12.828;2023-03-14T08:54:26;4.78;;;4.57;;
30080;SDS011;16902;50.816;12.828;2023-03-14T08:59:28;4.65;;;4.45;;
30080;SDS011;16902;50.816;12.828;2023-03-14T09:04:30;4.35;;;4.15;;
30080;SDS011;16902;50.816;12.828;2023-03-14T09:09:32;4.78;;;4.57;;
30080;SDS011;16902;50.816;12.828;2023-03-14T09:14:34;4.40;;;4.20;;
30080;SDS011;16902;50.816;12.828;2023-03-14T09:19:36;4.18;;;3.97;;
30080;SDS011;16902;50.816;12.828;2023-03-14T09:24:37;4.35;;;4.25;;
30080;SDS011;16902;50.816;12.828;2023-03-14T09:29:40;4.25;;;4.15;;
30080;SDS011;16902;50.816;12.828;2023-03-14T09:34:41;4.93;;;4.65;;
30080;SDS011;16902;50.816;12.828;2023-03-14T09:39:43;6.70;;;4.63;;
30080;SDS011;16902;50.816;12.828;2023-03-14T09:44:59;4.22;;;4.05;;
30080;SDS011;16902;50.816;12.828;2023-03-14T09:50:11;4.80;;;4.60;;
30080;SDS011;16902;50.816;12.828;2023-03-14T09:55:16;4.38;;;4.15;;
30080;SDS011;16902;50.816;12.828;2023-03-14T10:00:21;5.70;;;5.30;;
30080;SDS011;16902;50.816;12.828;2023-03-14T10:05:27;6.05;;;5.78;;
30080;SDS011;16902;50.816;12.828;2023-03-14T10:10:31;4.90;;;4.70;;
30080;SDS011;16902;50.816;12.828;2023-03-14T10:15:33;5.43;;;5.18;;
30080;SDS011;16902;50.816;12.828;2023-03-14T10:20:37;5.35;;;5.15;;
30080;SDS011;16902;50.816;12.828;2023-03-14T10:25:41;5.75;;;5.45;;
30080;SDS011;16902;50.816;12.828;2023-03-14T10:30:45;5.88;;;5.65;;
30080;SDS011;16902;50.816;12.828;2023-03-14T10:35:54;6.75;;;6.55;;
30080;SDS011;16902;50.816;12.828;2023-03-14T10:41:01;7.60;;;7.20;;
30080;SDS011;16902;50.816;12.828;2023-03-14T10:46:08;6.80;;;6.50;;
30080;SDS011;16902;50.816;12.828;2023-03-14T10:51:36;6.50;;;6.30;;
30080;SDS011;16902;50.816;12.828;2023-03-14T10:56:38;6.47;;;6.18;;
30080;SDS011;16902;50.816;12.828;2023-03-14T11:17:57;7.45;;;7.22;;
30080;SDS011;16902;50.816;12.828;2023-03-14T11:23:22;7.70;;;7.30;;
30080;SDS011;16902;50.816;12.828;2023-03-14T11:33:38;6.80;;;6.60;;
30080;SDS011;16902;50.816;12.828;2023-03-14T11:43:55;5.35;;;5.15;;
30080;SDS011;16902;50.816;12.828;2023-03-14T11:54:11;5.80;;;5.50;;
30080;SDS011;16902;50.816;12.828;2023-03-14T11:59:41;5.95;;;5.75;;
30080;SDS011;16902;50.816;12.828;2023-03-14T12:04:48;6.45;;;6.15;;
30080;SDS011;16902;50.816;12.828;2023-03-14T12:09:55;6.80;;;6.60;;
30080;SDS011;16902;50.816;12.828;2023-03-14T12:14:58;6.38;;;6.18;;
30080;SDS011;16902;50.816;12.828;2023-03-14T12:35:33;8.88;;;8.48;;
30080;SDS011;16902;50.816;12.828;2023-03-14T12:40:41;8.10;;;7.80;;
30080;SDS011;16902;50.816;12.828;2023-03-14T12:51:20;7.03;;;6.72;;
30080;SDS011;16902;50.816;12.828;2023-03-14T13:07:15;6.78;;;6.53;;
30080;SDS011;16902;50.816;12.828;2023-03-14T13:13:19;6.32;;;6.03;;
30080;SDS011;16902;50.816;12.828;2023-03-14T13:18:03;6.22;;;5.93;;
30080;SDS011;16902;50.816;12.828;2023-03-14T13:23:26;6.35;;;6.03;;
30080;SDS011;16902;50.816;12.828;2023-03-14T13:28:30;7.38;;;7.07;;
30080;SDS011;16902;50.816;12.828;2023-03-14T13:33:33;8.02;;;7.72;;
30080;SDS011;16902;50.816;12.828;2023-03-14T13:38:36;8.85;;;8.50;;
30080;SDS011;16902;50.816;12.828;2023-03-14T13:43:40;11.38;;;10.98;;
30080;SDS011;16902;50.816;12.828;2023-03-14T13:48:45;11.70;;;11.20;;
30080;SDS011;16902;50.816;12.828;2023-03-14T13:53:52;10.88;;;10.45;;
30080;SDS011;16902;50.816;12.828;2023-03-14T13:58:54;10.05;;;9.65;;
30080;SDS011;16902;50.816;12.828;2023-03-14T14:03:57;9.25;;;8.95;;
30080;SDS011;16902;50.816;12.828;2023-03-14T14:19:41;9.05;;;8.75;;
30080;SDS011;16902;50.816;12.828;2023-03-14T14:24:45;10.05;;;9.65;;
30080;SDS011;16902;50.816;12.828;2023-03-14T14:29:56;10.88;;;10.48;;
30080;SDS011;16902;50.816;12.828;2023-03-14T14:35:02;11.40;;;10.90;;
30080;SDS011;16902;50.816;12.828;2023-03-14T14:40:09;10.90;;;10.38;;
30080;SDS011;16902;50.816;12.828;2023-03-14T14:45:19;9.98;;;9.57;;
30080;SDS011;16902;50.816;12.828;2023-03-14T14:50:29;9.88;;;9.48;;
30080;SDS011;16902;50.816;12.828;2023-03-14T14:55:55;9.23;;;8.82;;
30080;SDS011;16902;50.816;12.828;2023-03-14T15:00:59;8.80;;;8.50;;
30080;SDS011;16902;50.816;12.828;2023-03-14T15:06:16;7.38;;;7.07;;
30080;SDS011;16902;50.816;12.828;2023-03-14T15:11:22;4.10;;;4.00;;
30080;SDS011;16902;50.816;12.828;2023-03-14T15:16:29;2.53;;;2.42;;
30080;SDS011;16902;50.816;12.828;2023-03-14T15:21:32;2.20;;;2.10;;
30080;SDS011;16902;50.816;12.828;2023-03-14T15:26:35;2.05;;;1.95;;
30080;SDS011;16902;50.816;12.828;2023-03-14T15:31:36;1.48;;;1.40;;
30080;SDS011;16902;50.816;12.828;2023-03-14T15:36:38;2.10;;;1.70;;
30080;SDS011;16902;50.816;12.828;2023-03-14T15:41:40;1.67;;;1.58;;
30080;SDS011;16902;50.816;12.828;2023-03-14T15:46:41;1.30;;;1.30;;
30080;SDS011;16902;50.816;12.828;2023-03-14T15:51:43;1.23;;;1.23;;
30080;SDS011;16902;50.816;12.828;2023-03-14T15:56:45;1.20;;;1.20;;
30080;SDS011;16902;50.816;12.828;2023-03-14T16:01:47;1.50;;;1.40;;
30080;SDS011;16902;50.816;12.828;2023-03-14T16:06:49;1.52;;;1.40;;
30080;SDS011;16902;50.816;12.828;2023-03-14T16:11:50;2.55;;;1.42;;
30080;SDS011;16902;50.816;12.828;2023-03-14T16:16:52;1.27;;;1.17;;
30080;SDS011;16902;50.816;12.828;2023-03-14T16:21:56;0.90;;;0.90;;
30080;SDS011;16902;50.816;12.828;2023-03-14T16:26:57;0.90;;;0.90;;
30080;SDS011;16902;50.816;12.828;2023-03-14T16:31:59;1.60;;;1.40;;
30080;SDS011;16902;50.816;12.828;2023-03-14T16:37:01;2.60;;;2.40;;
30080;SDS011;16902;50.816;12.828;2023-03-14T16:42:02;2.00;;;1.90;;
30080;SDS011;16902;50.816;12.828;2023-03-14T16:47:04;2.55;;;2.33;;
30080;SDS011;16902;50.816;12.828;2023-03-14T16:52:11;2.65;;;2.45;;
30080;SDS011;16902;50.816;12.828;2023-03-14T16:57:13;2.08;;;1.92;;
30080;SDS011;16902;50.816;12.828;2023-03-14T17:02:14;2.42;;;2.22;;
30080;SDS011;16902;50.816;12.828;2023-03-14T17:07:16;2.45;;;2.25;;
30080;SDS011;16902;50.816;12.828;2023-03-14T17:12:17;2.90;;;2.30;;
30080;SDS011;16902;50.816;12.828;2023-03-14T17:17:19;2.22;;;2.10;;
30080;SDS011;16902;50.816;12.828;2023-03-14T17:22:21;1.90;;;1.75;;
30080;SDS011;16902;50.816;12.828;2023-03-14T17:27:27;1.98;;;1.88;;
30080;SDS011;16902;50.816;12.828;2023-03-14T17:32:29;3.53;;;1.80;;
30080;SDS011;16902;50.816;12.828;2023-03-14T17:37:31;1.90;;;1.80;;
30080;SDS011;16902;50.816;12.828;2023-03-14T17:42:33;2.83;;;2.35;;
30080;SDS011;16902;50.816;12.828;2023-03-14T17:47:34;2.50;;;2.30;;
30080;SDS011;16902;50.816;12.828;2023-03-14T17:52:36;2.38;;;2.17;;
30080;SDS011;16902;50.816;12.828;2023-03-14T17:57:38;4.05;;;2.78;;
30080;SDS011;16902;50.816;12.828;2023-03-14T18:02:40;2.88;;;2.53;;
30080;SDS011;16902;50.816;12.828;2023-03-14T18:07:42;5.35;;;3.05;;
30080;SDS011;16902;50.816;12.828;2023-03-14T18:12:44;5.97;;;3.55;;
30080;SDS011;16902;50.816;12.828;2023-03-14T18:17:45;6.95;;;4.28;;
30080;SDS011;16902;50.816;12.828;2023-03-14T18:22:47;5.25;;;4.35;;
30080;SDS011;16902;50.816;12.828;2023-03-14T18:27:49;6.97;;;3.97;;
30080;SDS011;16902;50.816;12.828;2023-03-14T18:32:50;5.10;;;4.53;;
30080;SDS011;16902;50.816;12.828;2023-03-14T18:37:52;7.00;;;4.45;;
30080;SDS011;16902;50.816;12.828;2023-03-14T18:42:54;8.55;;;4.38;;
30080;SDS011;16902;50.816;12.828;2023-03-14T18:47:56;4.85;;;3.50;;
30080;SDS011;16902;50.816;12.828;2023-03-14T18:52:58;3.85;;;3.03;;
30080;SDS011;16902;50.816;12.828;2023-03-14T18:58:00;7.70;;;3.20;;
30080;SDS011;16902;50.816;12.828;2023-03-14T19:03:02;10.73;;;4.07;;
30080;SDS011;16902;50.816;12.828;2023-03-14T19:08:04;4.75;;;2.65;;
30080;SDS011;16902;50.816;12.828;2023-03-14T19:13:06;6.70;;;3.80;;
30080;SDS011;16902;50.816;12.828;2023-03-14T19:18:08;5.53;;;3.50;;
30080;SDS011;16902;50.816;12.828;2023-03-14T19:23:11;12.73;;;4.07;;
30080;SDS011;16902;50.816;12.828;2023-03-14T19:28:17;8.93;;;2.97;;
30080;SDS011;16902;50.816;12.828;2023-03-14T19:33:18;7.72;;;2.53;;
30080;SDS011;16902;50.816;12.828;2023-03-14T19:38:21;3.05;;;2.72;;
30080;SDS011;16902;50.816;12.828;2023-03-14T19:43:23;5.72;;;2.63;;
30080;SDS011;16902;50.816;12.828;2023-03-14T19:48:25;7.35;;;3.10;;
30080;SDS011;16902;50.816;12.828;2023-03-14T19:53:31;6.43;;;3.55;;
30080;SDS011;16902;50.816;12.828;2023-03-14T19:58:33;4.75;;;2.90;;
30080;SDS011;16902;50.816;12.828;2023-03-14T20:03:35;9.77;;;3.00;;
30080;SDS011;16902;50.816;12.828;2023-03-14T20:08:38;5.35;;;3.03;;
30080;SDS011;16902;50.816;12.828;2023-03-14T20:13:40;8.55;;;2.92;;
30080;SDS011;16902;50.816;12.828;2023-03-14T20:18:42;9.05;;;3.15;;
30080;SDS011;16902;50.816;12.828;2023-03-14T20:23:43;6.70;;;2.72;;
30080;SDS011;16902;50.816;12.828;2023-03-14T20:28:45;7.47;;;2.95;;
30080;SDS011;16902;50.816;12.828;2023-03-14T20:33:48;5.28;;;3.00;;
30080;SDS011;16902;50.816;12.828;2023-03-14T20:38:52;8.23;;;3.42;;
30080;SDS011;16902;50.816;12.828;2023-03-14T20:43:53;5.20;;;3.78;;
30080;SDS011;16902;50.816;12.828;2023-03-14T20:48:55;11.70;;;4.03;;
30080;SDS011;16902;50.816;12.828;2023-03-14T20:53:57;7.00;;;4.03;;
30080;SDS011;16902;50.816;12.828;2023-03-14T20:58:59;12.02;;;4.68;;
30080;SDS011;16902;50.816;12.828;2023-03-14T21:04:00;5.90;;;4.43;;
30080;SDS011;16902;50.816;12.828;2023-03-14T21:09:02;9.85;;;4.43;;
30080;SDS011;16902;50.816;12.828;2023-03-14T21:14:05;10.05;;;5.97;;
30080;SDS011;16902;50.816;12.828;2023-03-14T21:19:07;7.50;;;4.20;;
30080;SDS011;16902;50.816;12.828;2023-03-14T21:24:09;9.57;;;3.92;;
30080;SDS011;16902;50.816;12.828;2023-03-14T21:29:10;4.57;;;3.58;;
30080;SDS011;16902;50.816;12.828;2023-03-14T21:34:12;5.70;;;3.78;;
30080;SDS011;16902;50.816;12.828;2023-03-14T21:39:14;8.43;;;3.80;;
30080;SDS011;16902;50.816;12.828;2023-03-14T21:44:16;5.70;;;3.13;;
30080;SDS011;16902;50.816;12.828;2023-03-14T21:49:19;6.70;;;3.20;;
30080;SDS011;16902;50.816;12.828;2023-03-14T21:54:21;5.80;;;3.15;;
30080;SDS011;16902;50.816;12.828;2023-03-14T21:59:22;6.35;;;3.05;;
30080;SDS011;16902;50.816;12.828;2023-03-14T22:04:24;6.75;;;3.42;;
30080;SDS011;16902;50.816;12.828;2023-03-14T22:09:34;5.57;;;3.33;;
30080;SDS011;16902;50.816;12.828;2023-03-14T22:14:39;3.05;;;2.67;;
30080;SDS011;16902;50.816;12.828;2023-03-14T22:19:41;3.05;;;2.75;;
30080;SDS011;16902;50.816;12.828;2023-03-14T22:24:43;7.03;;;3.33;;
30080;SDS011;16902;50.816;12.828;2023-03-14T22:29:45;5.97;;;2.67;;
30080;SDS011;16902;50.816;12.828;2023-03-14T22:34:46;8.32;;;3.60;;
30080;SDS011;16902;50.816;12.828;2023-03-14T22:39:48;7.80;;;4.15;;
30080;SDS011;16902;50.816;12.828;2023-03-14T22:44:50;6.22;;;3.67;;
30080;SDS011;16902;50.816;12.828;2023-03-14T22:49:52;6.45;;;2.90;;
30080;SDS011;16902;50.816;12.828;2023-03-14T22:54:54;4.53;;;2.80;;
30080;SDS011;16902;50.816;12.828;2023-03-14T22:59:56;8.18;;;3.45;;
30080;SDS011;16902;50.816;12.828;2023-03-14T23:04:58;5.72;;;2.80;;
30080;SDS011;16902;50.816;12.828;2023-03-14T23:09:59;6.18;;;3.03;;
30080;SDS011;16902;50.816;12.828;2023-03-14T23:15:01;8.50;;;3.28;;
30080;SDS011;16902;50.816;12.828;2023-03-14T23:20:06;8.50;;;3.15;;
30080;SDS011;16902;50.816;12.828;2023-03-14T23:25:09;4.45;;;2.75;;
30080;SDS011;16902;50.816;12.828;2023-03-14T23:30:12;3.70;;;2.60;;
30080;SDS011;16902;50.816;12.828;2023-03-14T23:35:15;5.55;;;2.85;;
30080;SDS011;16902;50.816;12.828;2023-03-14T23:40:17;11.80;;;3.10;;
30080;SDS011;16902;50.816;12.828;2023-03-14T23:45:19;7.38;;;2.83;;
30080;SDS011;16902;50.816;12.828;2023-03-14T23:50:20;9.23;;;2.80;;
30080;SDS011;16902;50.816;12.828;2023-03-14T23:55:22;4.43;;;2.65;;
